sensor_id;sensor_type;location;lat;lon;timestamp;pressure;altitude;pressure_sealevel;temperature;humidity
7930;BME280;4010;42.698;23.124;2023-02-18T00:01:56;118349.16;;;-140.64;46.92
7930;BME280;4010;42.698;23.124;2023-02-18T00:04:23;118349.16;;;-140.64;46.95
7930;BME280;4010;42.698;23.124;2023-02-18T00:06:51;118349.16;;;-140.64;46.79
7930;BME280;4010;42.698;23.124;2023-02-18T00:09:17;118349.16;;;-140.64;46.48
7930;BME280;4010;42.698;23.124;2023-02-18T00:11:44;118349.16;;;-140.64;46.27
7930;BME280;4010;42.698;23.124;2023-02-18T00:14:13;118349.16;;;-140.64;46.13
7930;BME280;4010;42.698;23.124;2023-02-18T00:16:39;118349.16;;;-140.64;45.93
7930;BME280;4010;42.698;23.124;2023-02-18T00:19:10;118349.16;;;-140.64;45.91
7930;BME280;4010;42.698;23.124;2023-02-18T00:21:38;118349.16;;;-140.64;45.79
7930;BME280;4010;42.698;23.124;2023-02-18T00:24:08;118349.16;;;-140.64;45.78
7930;BME280;4010;42.698;23.124;2023-02-18T00:26:35;118349.16;;;-140.64;45.19
7930;BME280;4010;42.698;23.124;2023-02-18T00:29:02;118349.16;;;-140.64;44.99
7930;BME280;4010;42.698;23.124;2023-02-18T00:31:31;118349.16;;;-140.64;44.97
7930;BME280;4010;42.698;23.124;2023-02-18T00:33:58;118349.16;;;-140.64;44.36
7930;BME280;4010;42.698;23.124;2023-02-18T00:36:26;118349.16;;;-140.64;44.57
7930;BME280;4010;42.698;23.124;2023-02-18T00:38:54;118349.16;;;-140.64;44.79
7930;BME280;4010;42.698;23.124;2023-02-18T00:41:25;118349.16;;;-140.64;44.94
7930;BME280;4010;42.698;23.124;2023-02-18T00:43:52;118349.16;;;-140.64;45.38
7930;BME280;4010;42.698;23.124;2023-02-18T00:46:19;118349.16;;;-140.64;45.25
7930;BME280;4010;42.698;23.124;2023-02-18T00:48:46;118349.16;;;-140.64;44.99
7930;BME280;4010;42.698;23.124;2023-02-18T00:51:13;118349.16;;;-140.64;45.31
7930;BME280;4010;42.698;23.124;2023-02-18T00:53:40;118349.16;;;-140.64;45.39
7930;BME280;4010;42.698;23.124;2023-02-18T00:56:07;118349.16;;;-140.64;45.51
7930;BME280;4010;42.698;23.124;2023-02-18T00:58:35;118349.16;;;-140.64;45.46
7930;BME280;4010;42.698;23.124;2023-02-18T01:01:04;118349.16;;;-140.64;45.39
7930;BME280;4010;42.698;23.124;2023-02-18T01:03:30;118349.16;;;-140.64;45.22
7930;BME280;4010;42.698;23.124;2023-02-18T01:05:57;118349.16;;;-140.64;44.80
7930;BME280;4010;42.698;23.124;2023-02-18T01:08:24;118349.16;;;-140.64;44.60
7930;BME280;4010;42.698;23.124;2023-02-18T01:10:53;118349.16;;;-140.64;45.90
7930;BME280;4010;42.698;23.124;2023-02-18T01:13:21;118349.16;;;-140.64;46.96
7930;BME280;4010;42.698;23.124;2023-02-18T01:15:49;118349.16;;;-140.64;47.76
7930;BME280;4010;42.698;23.124;2023-02-18T01:18:16;118349.16;;;-140.64;48.24
7930;BME280;4010;42.698;23.124;2023-02-18T01:20:43;118349.16;;;-140.64;48.62
7930;BME280;4010;42.698;23.124;2023-02-18T01:23:11;118349.16;;;-140.64;48.40
7930;BME280;4010;42.698;23.124;2023-02-18T01:25:38;118349.16;;;-140.64;47.48
7930;BME280;4010;42.698;23.124;2023-02-18T01:28:06;118349.16;;;-140.64;47.04
7930;BME280;4010;42.698;23.124;2023-02-18T01:30:33;118349.16;;;-140.64;46.38
7930;BME280;4010;42.698;23.124;2023-02-18T01:33:01;118349.16;;;-140.64;45.80
7930;BME280;4010;42.698;23.124;2023-02-18T01:35:28;118349.16;;;-140.64;45.67
7930;BME280;4010;42.698;23.124;2023-02-18T01:37:55;118349.16;;;-140.64;45.40
7930;BME280;4010;42.698;23.124;2023-02-18T01:40:24;118349.16;;;-140.64;45.21
7930;BME280;4010;42.698;23.124;2023-02-18T01:42:51;118349.16;;;-140.64;45.31
7930;BME280;4010;42.698;23.124;2023-02-18T01:45:43;118349.16;;;-140.64;45.63
7930;BME280;4010;42.698;23.124;2023-02-18T01:48:17;118349.16;;;-140.64;45.44
7930;BME280;4010;42.698;23.124;2023-02-18T01:50:53;118349.16;;;-140.64;45.21
7930;BME280;4010;42.698;23.124;2023-02-18T01:53:26;118349.16;;;-140.64;45.65
7930;BME280;4010;42.698;23.124;2023-02-18T01:55:53;118349.16;;;-140.64;45.47
7930;BME280;4010;42.698;23.124;2023-02-18T01:58:21;118349.16;;;-140.64;45.56
7930;BME280;4010;42.698;23.124;2023-02-18T02:00:48;118349.16;;;-140.64;45.67
7930;BME280;4010;42.698;23.124;2023-02-18T02:03:16;118349.16;;;-140.64;45.96
7930;BME280;4010;42.698;23.124;2023-02-18T02:05:43;118349.16;;;-140.64;46.64
7930;BME280;4010;42.698;23.124;2023-02-18T02:08:10;118349.16;;;-140.64;47.28
7930;BME280;4010;42.698;23.124;2023-02-18T02:10:45;118349.16;;;-140.64;47.82
7930;BME280;4010;42.698;23.124;2023-02-18T02:13:19;118349.16;;;-140.64;48.67
7930;BME280;4010;42.698;23.124;2023-02-18T02:15:52;118349.16;;;-140.64;49.57
7930;BME280;4010;42.698;23.124;2023-02-18T02:18:40;118349.16;;;-140.64;50.32
7930;BME280;4010;42.698;23.124;2023-02-18T02:25:07;118349.16;;;-140.64;50.67
7930;BME280;4010;42.698;23.124;2023-02-18T02:28:00;118349.16;;;-140.64;50.52
7930;BME280;4010;42.698;23.124;2023-02-18T02:33:53;118349.16;;;-140.64;50.63
7930;BME280;4010;42.698;23.124;2023-02-18T02:36:30;118349.16;;;-140.64;50.84
7930;BME280;4010;42.698;23.124;2023-02-18T02:39:07;118349.16;;;-140.64;51.45
7930;BME280;4010;42.698;23.124;2023-02-18T02:41:45;118349.16;;;-140.64;52.25
7930;BME280;4010;42.698;23.124;2023-02-18T02:44:19;118349.16;;;-140.64;52.34
7930;BME280;4010;42.698;23.124;2023-02-18T02:46:48;118349.16;;;-140.64;52.51
7930;BME280;4010;42.698;23.124;2023-02-18T02:49:31;118349.16;;;-140.64;52.43
7930;BME280;4010;42.698;23.124;2023-02-18T02:52:02;118349.16;;;-140.64;52.35
7930;BME280;4010;42.698;23.124;2023-02-18T02:54:31;118349.16;;;-140.64;52.28
7930;BME280;4010;42.698;23.124;2023-02-18T02:57:07;118349.16;;;-140.64;52.68
7930;BME280;4010;42.698;23.124;2023-02-18T02:59:36;118349.16;;;-140.64;53.08
7930;BME280;4010;42.698;23.124;2023-02-18T03:02:17;118349.16;;;-140.64;53.88
7930;BME280;4010;42.698;23.124;2023-02-18T03:04:59;118349.16;;;-140.64;54.10
7930;BME280;4010;42.698;23.124;2023-02-18T03:10:35;118349.16;;;-140.64;55.99
7930;BME280;4010;42.698;23.124;2023-02-18T03:13:09;118349.16;;;-140.64;56.17
7930;BME280;4010;42.698;23.124;2023-02-18T03:15:48;118349.16;;;-140.64;56.35
7930;BME280;4010;42.698;23.124;2023-02-18T03:18:19;118349.16;;;-140.64;56.05
7930;BME280;4010;42.698;23.124;2023-02-18T03:20:52;118349.16;;;-140.64;55.71
7930;BME280;4010;42.698;23.124;2023-02-18T03:23:26;118349.16;;;-140.64;55.28
7930;BME280;4010;42.698;23.124;2023-02-18T03:25:54;118349.16;;;-140.64;55.14
7930;BME280;4010;42.698;23.124;2023-02-18T03:28:23;118349.16;;;-140.64;54.56
7930;BME280;4010;42.698;23.124;2023-02-18T03:30:54;118349.16;;;-140.64;54.38
7930;BME280;4010;42.698;23.124;2023-02-18T03:33:25;118349.16;;;-140.64;54.35
7930;BME280;4010;42.698;23.124;2023-02-18T03:35:53;118349.16;;;-140.64;54.17
7930;BME280;4010;42.698;23.124;2023-02-18T03:38:26;118349.16;;;-140.64;54.34
7930;BME280;4010;42.698;23.124;2023-02-18T03:40:55;118349.16;;;-140.64;54.66
7930;BME280;4010;42.698;23.124;2023-02-18T03:43:22;118349.16;;;-140.64;54.01
7930;BME280;4010;42.698;23.124;2023-02-18T03:45:49;118349.16;;;-140.64;54.54
7930;BME280;4010;42.698;23.124;2023-02-18T03:48:16;118349.16;;;-140.64;54.90
7930;BME280;4010;42.698;23.124;2023-02-18T03:50:42;118349.16;;;-140.64;55.22
7930;BME280;4010;42.698;23.124;2023-02-18T03:53:09;118349.16;;;-140.64;55.12
7930;BME280;4010;42.698;23.124;2023-02-18T03:55:37;118349.16;;;-140.64;55.43
7930;BME280;4010;42.698;23.124;2023-02-18T03:58:04;118349.16;;;-140.64;55.90
7930;BME280;4010;42.698;23.124;2023-02-18T04:00:30;118349.16;;;-140.64;56.49
7930;BME280;4010;42.698;23.124;2023-02-18T04:02:57;118349.16;;;-140.64;56.37
7930;BME280;4010;42.698;23.124;2023-02-18T04:05:24;118349.16;;;-140.64;56.99
7930;BME280;4010;42.698;23.124;2023-02-18T04:07:50;118349.16;;;-140.64;57.34
7930;BME280;4010;42.698;23.124;2023-02-18T04:10:17;118349.16;;;-140.64;57.54
7930;BME280;4010;42.698;23.124;2023-02-18T04:12:46;118349.16;;;-140.64;57.46
7930;BME280;4010;42.698;23.124;2023-02-18T04:15:13;118349.16;;;-140.64;57.54
7930;BME280;4010;42.698;23.124;2023-02-18T04:17:39;118349.16;;;-140.64;57.95
7930;BME280;4010;42.698;23.124;2023-02-18T04:20:07;118349.16;;;-140.64;58.41
7930;BME280;4010;42.698;23.124;2023-02-18T04:22:33;118349.16;;;-140.64;58.68
7930;BME280;4010;42.698;23.124;2023-02-18T04:25:00;118349.16;;;-140.64;58.66
7930;BME280;4010;42.698;23.124;2023-02-18T04:27:27;118349.16;;;-140.64;59.04
7930;BME280;4010;42.698;23.124;2023-02-18T04:29:55;118349.16;;;-140.64;58.55
7930;BME280;4010;42.698;23.124;2023-02-18T04:32:21;118349.16;;;-140.64;58.67
7930;BME280;4010;42.698;23.124;2023-02-18T04:34:48;118349.16;;;-140.64;58.69
7930;BME280;4010;42.698;23.124;2023-02-18T04:37:15;118349.16;;;-140.64;58.98
7930;BME280;4010;42.698;23.124;2023-02-18T04:39:41;118349.16;;;-140.64;59.17
7930;BME280;4010;42.698;23.124;2023-02-18T04:42:08;118349.16;;;-140.64;60.00
7930;BME280;4010;42.698;23.124;2023-02-18T04:44:35;118349.16;;;-140.64;60.51
7930;BME280;4010;42.698;23.124;2023-02-18T04:47:03;118349.16;;;-140.64;60.71
7930;BME280;4010;42.698;23.124;2023-02-18T04:49:30;118349.16;;;-140.64;60.76
7930;BME280;4010;42.698;23.124;2023-02-18T04:51:56;118349.16;;;-140.64;60.54
7930;BME280;4010;42.698;23.124;2023-02-18T04:54:23;118349.16;;;-140.64;60.61
7930;BME280;4010;42.698;23.124;2023-02-18T04:56:50;118349.16;;;-140.64;59.98
7930;BME280;4010;42.698;23.124;2023-02-18T04:59:16;118349.16;;;-140.64;59.06
7930;BME280;4010;42.698;23.124;2023-02-18T05:01:43;118349.16;;;-140.64;58.27
7930;BME280;4010;42.698;23.124;2023-02-18T05:04:11;118349.16;;;-140.64;57.29
7930;BME280;4010;42.698;23.124;2023-02-18T05:06:38;118349.16;;;-140.64;57.17
7930;BME280;4010;42.698;23.124;2023-02-18T05:09:07;118349.16;;;-140.64;57.39
7930;BME280;4010;42.698;23.124;2023-02-18T05:11:34;118349.16;;;-140.64;57.69
7930;BME280;4010;42.698;23.124;2023-02-18T05:14:00;118349.16;;;-140.64;57.52
7930;BME280;4010;42.698;23.124;2023-02-18T05:16:27;118349.16;;;-140.64;56.88
7930;BME280;4010;42.698;23.124;2023-02-18T05:18:53;118349.16;;;-140.64;56.80
7930;BME280;4010;42.698;23.124;2023-02-18T05:21:21;118349.16;;;-140.64;55.60
7930;BME280;4010;42.698;23.124;2023-02-18T05:23:48;118349.16;;;-140.64;54.83
7930;BME280;4010;42.698;23.124;2023-02-18T05:26:15;118349.16;;;-140.64;53.95
7930;BME280;4010;42.698;23.124;2023-02-18T05:28:42;118349.16;;;-140.64;53.02
7930;BME280;4010;42.698;23.124;2023-02-18T05:31:08;118349.16;;;-140.64;51.47
7930;BME280;4010;42.698;23.124;2023-02-18T05:33:35;118349.16;;;-140.64;51.41
7930;BME280;4010;42.698;23.124;2023-02-18T05:36:02;118349.16;;;-140.64;50.52
7930;BME280;4010;42.698;23.124;2023-02-18T05:38:30;118349.16;;;-140.64;49.26
7930;BME280;4010;42.698;23.124;2023-02-18T05:40:57;118349.16;;;-140.64;47.54
7930;BME280;4010;42.698;23.124;2023-02-18T05:43:23;118349.16;;;-140.64;47.23
7930;BME280;4010;42.698;23.124;2023-02-18T05:45:50;118349.16;;;-140.64;47.87
7930;BME280;4010;42.698;23.124;2023-02-18T05:48:17;118349.16;;;-140.64;48.62
7930;BME280;4010;42.698;23.124;2023-02-18T05:50:43;118349.16;;;-140.64;49.50
7930;BME280;4010;42.698;23.124;2023-02-18T05:53:10;118349.16;;;-140.64;49.57
7930;BME280;4010;42.698;23.124;2023-02-18T05:55:38;118349.16;;;-140.64;50.04
7930;BME280;4010;42.698;23.124;2023-02-18T05:58:07;118349.16;;;-140.64;49.67
7930;BME280;4010;42.698;23.124;2023-02-18T06:00:33;118349.16;;;-140.64;50.30
7930;BME280;4010;42.698;23.124;2023-02-18T06:03:00;118349.16;;;-140.64;50.46
7930;BME280;4010;42.698;23.124;2023-02-18T06:05:27;118349.16;;;-140.64;50.67
7930;BME280;4010;42.698;23.124;2023-02-18T06:07:54;118349.16;;;-140.64;51.51
7930;BME280;4010;42.698;23.124;2023-02-18T06:10:21;118349.16;;;-140.64;51.47
7930;BME280;4010;42.698;23.124;2023-02-18T06:13:02;118349.16;;;-140.64;51.04
7930;BME280;4010;42.698;23.124;2023-02-18T06:15:29;118349.16;;;-140.64;51.47
7930;BME280;4010;42.698;23.124;2023-02-18T06:17:55;118349.16;;;-140.64;51.89
7930;BME280;4010;42.698;23.124;2023-02-18T06:20:22;118349.16;;;-140.64;53.02
7930;BME280;4010;42.698;23.124;2023-02-18T06:22:49;118349.16;;;-140.64;52.50
7930;BME280;4010;42.698;23.124;2023-02-18T06:25:16;118349.16;;;-140.64;52.25
7930;BME280;4010;42.698;23.124;2023-02-18T06:27:42;118349.16;;;-140.64;52.30
7930;BME280;4010;42.698;23.124;2023-02-18T06:30:11;118349.16;;;-140.64;52.60
7930;BME280;4010;42.698;23.124;2023-02-18T06:32:38;118349.16;;;-140.64;53.07
7930;BME280;4010;42.698;23.124;2023-02-18T06:35:05;118349.16;;;-140.64;52.83
7930;BME280;4010;42.698;23.124;2023-02-18T06:37:32;118349.16;;;-140.64;52.21
7930;BME280;4010;42.698;23.124;2023-02-18T06:39:58;118349.16;;;-140.64;52.33
7930;BME280;4010;42.698;23.124;2023-02-18T06:42:25;118349.16;;;-140.64;52.35
7930;BME280;4010;42.698;23.124;2023-02-18T06:44:51;118349.16;;;-140.64;50.88
7930;BME280;4010;42.698;23.124;2023-02-18T06:47:20;118349.16;;;-140.64;49.99
7930;BME280;4010;42.698;23.124;2023-02-18T06:49:46;118349.16;;;-140.64;49.10
7930;BME280;4010;42.698;23.124;2023-02-18T06:52:13;118349.16;;;-140.64;49.26
7930;BME280;4010;42.698;23.124;2023-02-18T06:54:40;118349.16;;;-140.64;49.24
7930;BME280;4010;42.698;23.124;2023-02-18T06:57:07;118349.16;;;-140.64;49.51
7930;BME280;4010;42.698;23.124;2023-02-18T06:59:33;118349.16;;;-140.64;50.55
7930;BME280;4010;42.698;23.124;2023-02-18T07:02:00;118349.16;;;-140.64;51.44
7930;BME280;4010;42.698;23.124;2023-02-18T07:04:28;118349.16;;;-140.64;50.98
7930;BME280;4010;42.698;23.124;2023-02-18T07:06:54;118349.16;;;-140.64;51.01
7930;BME280;4010;42.698;23.124;2023-02-18T07:09:21;118349.16;;;-140.64;51.27
7930;BME280;4010;42.698;23.124;2023-02-18T07:11:48;118349.16;;;-140.64;51.36
7930;BME280;4010;42.698;23.124;2023-02-18T07:14:14;118349.16;;;-140.64;50.71
7930;BME280;4010;42.698;23.124;2023-02-18T07:16:41;118349.16;;;-140.64;51.79
7930;BME280;4010;42.698;23.124;2023-02-18T07:19:08;118349.16;;;-140.64;51.69
7930;BME280;4010;42.698;23.124;2023-02-18T07:21:36;118349.16;;;-140.64;52.32
7930;BME280;4010;42.698;23.124;2023-02-18T07:24:03;118349.16;;;-140.64;50.60
7930;BME280;4010;42.698;23.124;2023-02-18T07:26:30;118349.16;;;-140.64;50.19
7930;BME280;4010;42.698;23.124;2023-02-18T07:28:56;118349.16;;;-140.64;49.78
7930;BME280;4010;42.698;23.124;2023-02-18T07:31:23;118349.16;;;-140.64;48.22
7930;BME280;4010;42.698;23.124;2023-02-18T07:33:50;118349.16;;;-140.64;47.89
7930;BME280;4010;42.698;23.124;2023-02-18T07:36:16;118349.16;;;-140.64;47.99
7930;BME280;4010;42.698;23.124;2023-02-18T07:38:44;118349.16;;;-140.64;47.71
7930;BME280;4010;42.698;23.124;2023-02-18T07:41:18;118349.16;;;-140.64;47.88
7930;BME280;4010;42.698;23.124;2023-02-18T07:43:45;118349.16;;;-140.64;49.04
7930;BME280;4010;42.698;23.124;2023-02-18T07:46:12;118349.16;;;-140.64;46.61
7930;BME280;4010;42.698;23.124;2023-02-18T07:48:39;118349.16;;;-140.64;48.25
7930;BME280;4010;42.698;23.124;2023-02-18T07:51:07;118349.16;;;-140.64;46.12
7930;BME280;4010;42.698;23.124;2023-02-18T07:53:34;118349.16;;;-140.64;44.43
7930;BME280;4010;42.698;23.124;2023-02-18T07:56:03;118349.16;;;-140.64;43.30
7930;BME280;4010;42.698;23.124;2023-02-18T07:58:32;118349.16;;;-140.64;43.00
7930;BME280;4010;42.698;23.124;2023-02-18T08:01:03;118349.16;;;-140.64;43.88
7930;BME280;4010;42.698;23.124;2023-02-18T08:03:31;118349.16;;;-140.64;43.36
7930;BME280;4010;42.698;23.124;2023-02-18T08:05:59;118349.16;;;-140.64;43.27
7930;BME280;4010;42.698;23.124;2023-02-18T08:08:28;118349.16;;;-140.64;43.42
7930;BME280;4010;42.698;23.124;2023-02-18T08:10:56;118349.16;;;-140.64;42.60
7930;BME280;4010;42.698;23.124;2023-02-18T08:13:25;118349.16;;;-140.64;41.42
7930;BME280;4010;42.698;23.124;2023-02-18T08:15:53;118349.16;;;-140.64;41.40
7930;BME280;4010;42.698;23.124;2023-02-18T08:18:21;118349.16;;;-140.64;41.09
7930;BME280;4010;42.698;23.124;2023-02-18T08:20:49;118349.16;;;-140.64;40.62
7930;BME280;4010;42.698;23.124;2023-02-18T08:23:17;118349.16;;;-140.64;40.24
7930;BME280;4010;42.698;23.124;2023-02-18T08:25:45;118349.16;;;-140.64;39.33
7930;BME280;4010;42.698;23.124;2023-02-18T08:28:12;118349.16;;;-140.64;39.75
7930;BME280;4010;42.698;23.124;2023-02-18T08:30:44;118349.16;;;-140.64;39.31
7930;BME280;4010;42.698;23.124;2023-02-18T08:33:11;118349.16;;;-140.64;40.44
7930;BME280;4010;42.698;23.124;2023-02-18T08:35:38;118349.16;;;-140.64;39.80
7930;BME280;4010;42.698;23.124;2023-02-18T08:38:05;118349.16;;;-140.64;38.05
7930;BME280;4010;42.698;23.124;2023-02-18T08:40:31;118349.16;;;-140.64;37.18
7930;BME280;4010;42.698;23.124;2023-02-18T08:42:58;118349.16;;;-140.64;36.15
7930;BME280;4010;42.698;23.124;2023-02-18T08:45:25;118349.16;;;-140.64;36.53
7930;BME280;4010;42.698;23.124;2023-02-18T08:47:53;118349.16;;;-140.64;35.90
7930;BME280;4010;42.698;23.124;2023-02-18T08:50:19;118349.16;;;-140.64;35.58
7930;BME280;4010;42.698;23.124;2023-02-18T08:52:50;118349.16;;;-140.64;35.80
7930;BME280;4010;42.698;23.124;2023-02-18T08:55:17;118349.16;;;-140.64;35.37
7930;BME280;4010;42.698;23.124;2023-02-18T08:57:45;118349.16;;;-140.64;35.25
7930;BME280;4010;42.698;23.124;2023-02-18T09:00:13;118349.16;;;-140.64;34.10
7930;BME280;4010;42.698;23.124;2023-02-18T09:02:40;118349.16;;;-140.64;34.07
7930;BME280;4010;42.698;23.124;2023-02-18T09:05:08;118349.16;;;-140.64;35.02
7930;BME280;4010;42.698;23.124;2023-02-18T09:07:35;118349.16;;;-140.64;34.84
7930;BME280;4010;42.698;23.124;2023-02-18T09:10:03;118349.16;;;-140.64;34.71
7930;BME280;4010;42.698;23.124;2023-02-18T09:12:30;118349.16;;;-140.64;35.09
7930;BME280;4010;42.698;23.124;2023-02-18T09:14:57;118349.16;;;-140.64;35.19
7930;BME280;4010;42.698;23.124;2023-02-18T09:17:24;118349.16;;;-140.64;35.20
7930;BME280;4010;42.698;23.124;2023-02-18T09:19:52;118349.16;;;-140.64;34.30
7930;BME280;4010;42.698;23.124;2023-02-18T09:22:20;118349.16;;;-140.64;34.66
7930;BME280;4010;42.698;23.124;2023-02-18T09:24:47;118349.16;;;-140.64;34.15
7930;BME280;4010;42.698;23.124;2023-02-18T09:27:14;118349.16;;;-140.64;33.94
7930;BME280;4010;42.698;23.124;2023-02-18T09:29:41;118349.16;;;-140.64;33.73
7930;BME280;4010;42.698;23.124;2023-02-18T09:32:08;118349.16;;;-140.64;34.17
7930;BME280;4010;42.698;23.124;2023-02-18T09:34:37;118349.16;;;-140.64;33.34
7930;BME280;4010;42.698;23.124;2023-02-18T09:37:04;118349.16;;;-140.64;33.71
7930;BME280;4010;42.698;23.124;2023-02-18T09:39:32;118349.16;;;-140.64;33.55
7930;BME280;4010;42.698;23.124;2023-02-18T09:42:01;118349.16;;;-140.64;33.89
7930;BME280;4010;42.698;23.124;2023-02-18T09:44:30;118349.16;;;-140.64;33.43
7930;BME280;4010;42.698;23.124;2023-02-18T09:47:02;118349.16;;;-140.64;33.49
7930;BME280;4010;42.698;23.124;2023-02-18T09:49:31;118349.16;;;-140.64;33.30
7930;BME280;4010;42.698;23.124;2023-02-18T09:52:05;118349.16;;;-140.64;33.20
7930;BME280;4010;42.698;23.124;2023-02-18T09:54:33;118349.16;;;-140.64;33.25
7930;BME280;4010;42.698;23.124;2023-02-18T09:57:02;118349.16;;;-140.64;32.71
7930;BME280;4010;42.698;23.124;2023-02-18T09:59:30;118349.16;;;-140.64;33.39
7930;BME280;4010;42.698;23.124;2023-02-18T10:01:56;118349.16;;;-140.64;32.93
7930;BME280;4010;42.698;23.124;2023-02-18T10:04:27;118349.16;;;-140.64;32.93
7930;BME280;4010;42.698;23.124;2023-02-18T10:06:55;118349.16;;;-140.64;31.83
7930;BME280;4010;42.698;23.124;2023-02-18T10:09:24;118349.16;;;-140.64;32.91
7930;BME280;4010;42.698;23.124;2023-02-18T10:11:57;118349.16;;;-140.64;32.05
7930;BME280;4010;42.698;23.124;2023-02-18T10:14:26;118349.16;;;-140.64;31.71
7930;BME280;4010;42.698;23.124;2023-02-18T10:16:52;118349.16;;;-140.64;31.02
7930;BME280;4010;42.698;23.124;2023-02-18T10:19:23;118349.16;;;-140.64;31.54
7930;BME280;4010;42.698;23.124;2023-02-18T10:21:51;118349.16;;;-140.64;30.73
7930;BME280;4010;42.698;23.124;2023-02-18T10:24:26;118349.16;;;-140.64;30.98
7930;BME280;4010;42.698;23.124;2023-02-18T10:26:56;118349.16;;;-140.64;31.14
7930;BME280;4010;42.698;23.124;2023-02-18T10:29:24;118349.16;;;-140.64;31.57
7930;BME280;4010;42.698;23.124;2023-02-18T10:31:54;118349.16;;;-140.64;31.61
7930;BME280;4010;42.698;23.124;2023-02-18T10:34:32;118349.16;;;-140.64;31.00
7930;BME280;4010;42.698;23.124;2023-02-18T10:37:07;118349.16;;;-140.64;31.92
7930;BME280;4010;42.698;23.124;2023-02-18T10:39:49;118349.16;;;-140.64;31.77
7930;BME280;4010;42.698;23.124;2023-02-18T10:42:29;118349.16;;;-140.64;31.50
7930;BME280;4010;42.698;23.124;2023-02-18T10:45:09;118349.16;;;-140.64;32.46
7930;BME280;4010;42.698;23.124;2023-02-18T10:47:47;118349.16;;;-140.64;32.29
7930;BME280;4010;42.698;23.124;2023-02-18T10:50:26;118349.16;;;-140.64;32.21
7930;BME280;4010;42.698;23.124;2023-02-18T10:52:56;118349.16;;;-140.64;32.64
7930;BME280;4010;42.698;23.124;2023-02-18T10:55:34;118349.16;;;-140.64;32.52
7930;BME280;4010;42.698;23.124;2023-02-18T10:58:03;118349.16;;;-140.64;30.97
7930;BME280;4010;42.698;23.124;2023-02-18T11:00:49;118349.16;;;-140.64;33.08
7930;BME280;4010;42.698;23.124;2023-02-18T11:03:18;118349.16;;;-140.64;32.34
7930;BME280;4010;42.698;23.124;2023-02-18T11:05:47;118349.16;;;-140.64;32.08
7930;BME280;4010;42.698;23.124;2023-02-18T11:08:17;118349.16;;;-140.64;31.32
7930;BME280;4010;42.698;23.124;2023-02-18T11:10:45;118349.16;;;-140.64;31.24
7930;BME280;4010;42.698;23.124;2023-02-18T11:13:17;118349.16;;;-140.64;31.35
7930;BME280;4010;42.698;23.124;2023-02-18T11:16:00;118349.16;;;-140.64;31.56
7930;BME280;4010;42.698;23.124;2023-02-18T11:18:36;118349.16;;;-140.64;32.38
7930;BME280;4010;42.698;23.124;2023-02-18T11:21:08;118349.16;;;-140.64;32.59
7930;BME280;4010;42.698;23.124;2023-02-18T11:23:46;118349.16;;;-140.64;33.19
7930;BME280;4010;42.698;23.124;2023-02-18T11:26:15;118349.16;;;-140.64;32.27
7930;BME280;4010;42.698;23.124;2023-02-18T11:28:45;118349.16;;;-140.64;33.56
7930;BME280;4010;42.698;23.124;2023-02-18T11:31:20;118349.16;;;-140.64;33.69
7930;BME280;4010;42.698;23.124;2023-02-18T11:33:50;118349.16;;;-140.64;33.09
7930;BME280;4010;42.698;23.124;2023-02-18T11:36:21;118349.16;;;-140.64;33.16
7930;BME280;4010;42.698;23.124;2023-02-18T11:38:51;118349.16;;;-140.64;33.75
7930;BME280;4010;42.698;23.124;2023-02-18T11:41:27;118349.16;;;-140.64;33.36
7930;BME280;4010;42.698;23.124;2023-02-18T11:43:57;118349.16;;;-140.64;32.55
7930;BME280;4010;42.698;23.124;2023-02-18T11:46:25;118349.16;;;-140.64;32.46
7930;BME280;4010;42.698;23.124;2023-02-18T11:48:53;118349.16;;;-140.64;32.52
7930;BME280;4010;42.698;23.124;2023-02-18T11:51:23;118349.16;;;-140.64;32.70
7930;BME280;4010;42.698;23.124;2023-02-18T11:54:01;118349.16;;;-140.64;31.83
7930;BME280;4010;42.698;23.124;2023-02-18T11:56:30;118349.16;;;-140.64;31.74
7930;BME280;4010;42.698;23.124;2023-02-18T11:58:59;118349.16;;;-140.64;31.82
7930;BME280;4010;42.698;23.124;2023-02-18T12:01:40;118349.16;;;-140.64;31.57
7930;BME280;4010;42.698;23.124;2023-02-18T12:04:11;118349.16;;;-140.64;31.23
7930;BME280;4010;42.698;23.124;2023-02-18T12:06:44;118349.16;;;-140.64;30.68
7930;BME280;4010;42.698;23.124;2023-02-18T12:09:23;118349.16;;;-140.64;30.97
7930;BME280;4010;42.698;23.124;2023-02-18T12:11:55;118349.16;;;-140.64;31.35
7930;BME280;4010;42.698;23.124;2023-02-18T12:14:24;118349.16;;;-140.64;31.35
7930;BME280;4010;42.698;23.124;2023-02-18T12:17:08;118349.16;;;-140.64;30.05
7930;BME280;4010;42.698;23.124;2023-02-18T12:19:46;118349.16;;;-140.64;30.48
7930;BME280;4010;42.698;23.124;2023-02-18T12:22:21;118349.16;;;-140.64;30.99
7930;BME280;4010;42.698;23.124;2023-02-18T12:25:03;118349.16;;;-140.64;29.47
7930;BME280;4010;42.698;23.124;2023-02-18T12:27:40;118349.16;;;-140.64;30.20
7930;BME280;4010;42.698;23.124;2023-02-18T12:30:29;118349.16;;;-140.64;29.93
7930;BME280;4010;42.698;23.124;2023-02-18T12:33:04;118349.16;;;-140.64;30.71
7930;BME280;4010;42.698;23.124;2023-02-18T12:35:48;118349.16;;;-140.64;30.48
7930;BME280;4010;42.698;23.124;2023-02-18T12:38:48;118349.16;;;-140.64;30.84
7930;BME280;4010;42.698;23.124;2023-02-18T12:41:28;118349.16;;;-140.64;30.29
7930;BME280;4010;42.698;23.124;2023-02-18T12:44:03;118349.16;;;-140.64;31.10
7930;BME280;4010;42.698;23.124;2023-02-18T12:46:49;118349.16;;;-140.64;30.77
7930;BME280;4010;42.698;23.124;2023-02-18T12:49:30;118349.16;;;-140.64;31.00
7930;BME280;4010;42.698;23.124;2023-02-18T12:52:14;118349.16;;;-140.64;31.40
7930;BME280;4010;42.698;23.124;2023-02-18T12:54:56;118349.16;;;-140.64;31.70
7930;BME280;4010;42.698;23.124;2023-02-18T12:57:35;118349.16;;;-140.64;31.38
7930;BME280;4010;42.698;23.124;2023-02-18T13:00:22;118349.16;;;-140.64;32.05
7930;BME280;4010;42.698;23.124;2023-02-18T13:03:22;118349.16;;;-140.64;31.86
7930;BME280;4010;42.698;23.124;2023-02-18T13:06:01;118349.16;;;-140.64;31.45